createdAt,value
2018-09-12T00:02:24.304Z,36.58
2018-09-12T00:04:52.315Z,36.92
2018-09-12T00:07:20.594Z,37.25
2018-09-12T00:09:48.679Z,37.12
2018-09-12T00:12:16.647Z,37.12
2018-09-12T00:14:44.645Z,37.32
2018-09-12T00:17:12.484Z,38.56
2018-09-12T00:19:40.347Z,39.84
2018-09-12T00:22:08.378Z,39.94
2018-09-12T00:24:36.304Z,40.31
2018-09-12T00:27:04.274Z,40.86
2018-09-12T00:29:32.170Z,41.09
2018-09-12T00:32:00.122Z,41.44
2018-09-12T00:34:27.980Z,41.28
2018-09-12T00:36:56.235Z,42.03
2018-09-12T00:39:24.043Z,41.04
2018-09-12T00:41:52.517Z,41.66
2018-09-12T00:44:20.664Z,41.25
2018-09-12T00:46:48.568Z,41.70
2018-09-12T00:49:16.552Z,41.30
2018-09-12T00:51:44.441Z,40.04
2018-09-12T00:54:12.456Z,39.41
2018-09-12T00:56:40.532Z,38.72
2018-09-12T00:59:08.535Z,38.39
2018-09-12T01:01:36.484Z,38.42
2018-09-12T01:04:04.281Z,39.03
2018-09-12T01:06:32.269Z,38.77
2018-09-12T01:09:00.120Z,38.27
2018-09-12T01:11:28.051Z,38.56
2018-09-12T01:13:56.339Z,38.35
2018-09-12T01:16:24.123Z,37.78
2018-09-12T01:18:51.999Z,38.35
2018-09-12T01:21:19.801Z,38.55
2018-09-12T01:23:47.748Z,38.21
2018-09-12T01:26:16.130Z,38.36
2018-09-12T01:28:44.073Z,37.99
2018-09-12T01:31:12.247Z,38.93
2018-09-12T01:33:40.369Z,39.38
2018-09-12T01:36:08.454Z,38.27
2018-09-12T01:38:36.621Z,37.72
2018-09-12T01:41:04.573Z,38.16
2018-09-12T01:43:32.372Z,38.46
2018-09-12T01:46:00.213Z,37.90
2018-09-12T01:48:28.178Z,38.30
2018-09-12T01:50:56.308Z,38.27
2018-09-12T01:53:24.225Z,38.21
2018-09-12T01:55:52.127Z,37.65
2018-09-12T01:58:20.041Z,37.98
2018-09-12T02:00:48.025Z,37.86
2018-09-12T02:03:15.933Z,37.93
2018-09-12T02:05:43.817Z,39.85
2018-09-12T02:08:11.669Z,40.86
2018-09-12T02:10:39.622Z,40.99
2018-09-12T02:13:07.712Z,41.30
2018-09-12T02:15:35.693Z,40.79
2018-09-12T02:18:03.556Z,41.70
2018-09-12T02:20:31.727Z,41.40
2018-09-12T02:22:59.585Z,41.33
2018-09-12T02:25:27.468Z,39.46
2018-09-12T02:27:55.361Z,39.99
2018-09-12T02:30:23.205Z,40.86
2018-09-12T02:32:50.987Z,42.37
2018-09-12T02:35:18.871Z,42.90
2018-09-12T02:37:46.806Z,42.73
2018-09-12T02:40:14.577Z,42.39
2018-09-12T02:42:42.591Z,42.36
2018-09-12T02:45:10.440Z,41.84
2018-09-12T02:47:39.268Z,42.41
2018-09-12T02:50:10.618Z,42.77
2018-09-12T02:52:38.453Z,40.73
2018-09-12T02:55:07.628Z,41.91
2018-09-12T02:57:35.657Z,43.02
2018-09-12T03:00:03.891Z,42.71
2018-09-12T03:02:31.944Z,42.22
2018-09-12T03:04:59.849Z,42.33
2018-09-12T03:07:27.827Z,41.86
2018-09-12T03:09:55.910Z,42.15
2018-09-12T03:12:23.990Z,42.74
2018-09-12T03:14:52.053Z,42.85
2018-09-12T03:17:20.006Z,42.47
2018-09-12T03:19:48.266Z,42.94
2018-09-12T03:22:16.049Z,43.98
2018-09-12T03:24:44.028Z,43.90
2018-09-12T03:27:12.054Z,43.47
2018-09-12T03:29:39.872Z,43.85
2018-09-12T03:32:07.970Z,44.27
2018-09-12T03:34:35.870Z,45.40
2018-09-12T03:37:03.712Z,45.47
2018-09-12T03:39:31.559Z,45.73
2018-09-12T03:41:59.450Z,45.61
2018-09-12T03:44:27.300Z,45.34
2018-09-12T03:46:55.270Z,45.87
2018-09-12T03:49:23.066Z,45.86
2018-09-12T03:51:50.923Z,45.86
2018-09-12T03:54:18.977Z,45.92
2018-09-12T03:56:46.786Z,45.96
2018-09-12T03:59:14.733Z,45.29
2018-09-12T04:01:42.591Z,46.20
2018-09-12T04:04:10.590Z,45.79
2018-09-12T04:06:38.645Z,46.16
2018-09-12T04:09:08.234Z,45.96
2018-09-12T04:11:36.173Z,46.85
2018-09-12T04:14:03.990Z,45.95
2018-09-12T04:16:32.176Z,46.66
2018-09-12T04:19:00.065Z,46.76
2018-09-12T04:21:27.911Z,46.32
2018-09-12T04:23:55.856Z,46.66
2018-09-12T04:26:23.778Z,46.71
2018-09-12T04:28:51.720Z,47.12
2018-09-12T04:31:19.608Z,46.99
2018-09-12T04:33:47.495Z,47.18
2018-09-12T04:36:15.348Z,47.66
2018-09-12T04:38:43.208Z,47.11
2018-09-12T04:41:11.125Z,46.29
2018-09-12T04:43:39.038Z,46.33
2018-09-12T04:46:07.124Z,45.23
2018-09-12T04:48:35.105Z,46.43
2018-09-12T04:53:37.203Z,46.75
2018-09-12T04:56:05.111Z,47.13
2018-09-12T04:58:33.124Z,47.37
2018-09-12T05:01:01.018Z,47.50
2018-09-12T05:03:28.884Z,47.83
2018-09-12T05:05:57.043Z,47.73
2018-09-12T05:08:24.941Z,47.54
2018-09-12T05:10:52.881Z,47.76
2018-09-12T05:13:20.786Z,48.09
2018-09-12T05:15:48.731Z,48.05
2018-09-12T05:18:16.810Z,48.26
2018-09-12T05:20:44.689Z,48.66
2018-09-12T05:23:12.673Z,49.18
2018-09-12T05:25:40.519Z,48.69
2018-09-12T05:28:08.597Z,48.72
2018-09-12T05:30:36.882Z,48.95
2018-09-12T05:33:04.745Z,48.70
2018-09-12T05:35:32.798Z,49.05
2018-09-12T05:38:00.872Z,48.60
2018-09-12T05:40:28.765Z,48.24
2018-09-12T05:42:56.756Z,47.58
2018-09-12T05:45:24.665Z,47.46
2018-09-12T05:47:52.482Z,45.74
2018-09-12T05:50:20.325Z,45.22
2018-09-12T05:52:48.357Z,42.67
2018-09-12T05:55:16.199Z,42.45
2018-09-12T05:57:44.486Z,40.63
2018-09-12T06:00:12.507Z,41.42
2018-09-12T06:02:40.326Z,41.95
2018-09-12T06:05:08.309Z,44.09
2018-09-12T06:07:36.347Z,41.67
2018-09-12T06:10:04.348Z,39.02
2018-09-12T06:12:32.276Z,39.05
2018-09-12T06:15:00.241Z,38.20
2018-09-12T06:17:28.079Z,37.61
2018-09-12T06:19:56.055Z,37.04
2018-09-12T06:22:24.016Z,37.34
2018-09-12T06:24:51.979Z,36.80
2018-09-12T06:27:19.832Z,36.79
2018-09-12T06:29:47.743Z,36.04
2018-09-12T06:32:15.703Z,35.10
2018-09-12T06:34:43.574Z,35.45
2018-09-12T06:37:11.489Z,35.15
2018-09-12T06:39:39.320Z,34.84
2018-09-12T06:42:07.576Z,34.50
2018-09-12T06:44:35.417Z,34.32
2018-09-12T06:47:03.448Z,34.19
2018-09-12T06:49:31.627Z,33.71
2018-09-12T06:51:59.531Z,33.96
2018-09-12T06:54:27.363Z,33.33
2018-09-12T06:56:55.250Z,33.35
2018-09-12T06:59:23.192Z,32.93
2018-09-12T07:01:50.981Z,32.56
2018-09-12T07:04:18.869Z,31.93
2018-09-12T07:06:46.802Z,31.94
2018-09-12T07:09:14.720Z,31.17
2018-09-12T07:11:42.676Z,31.00
2018-09-12T07:14:10.745Z,31.05
2018-09-12T07:16:38.621Z,30.73
2018-09-12T07:19:06.656Z,29.95
2018-09-12T07:21:34.568Z,30.17
2018-09-12T07:24:02.442Z,29.29
2018-09-12T07:26:30.528Z,29.77
2018-09-12T07:28:58.433Z,29.11
2018-09-12T07:31:26.273Z,29.77
2018-09-12T07:33:54.131Z,28.62
2018-09-12T07:36:22.025Z,28.32
2018-09-12T07:38:49.942Z,29.06
2018-09-12T07:41:17.846Z,28.38
2018-09-12T07:43:45.831Z,27.80
2018-09-12T07:46:13.666Z,27.16
2018-09-12T07:48:41.814Z,27.40
2018-09-12T07:51:09.890Z,26.43
2018-09-12T07:53:37.824Z,26.60
2018-09-12T07:56:05.753Z,26.01
2018-09-12T07:58:33.582Z,25.70
2018-09-12T08:01:01.619Z,25.39
2018-09-12T08:03:29.615Z,24.10
2018-09-12T08:05:57.311Z,23.67
2018-09-12T08:08:25.009Z,23.27
2018-09-12T08:10:52.816Z,22.77
2018-09-12T08:13:20.535Z,22.60
2018-09-12T08:15:48.234Z,22.21
2018-09-12T08:18:15.890Z,21.69
2018-09-12T08:20:43.602Z,20.94
2018-09-12T08:23:11.289Z,20.48
2018-09-12T08:25:38.922Z,19.79
2018-09-12T08:28:06.626Z,19.91
2018-09-12T08:30:34.433Z,20.00
2018-09-12T08:33:02.123Z,20.51
2018-09-12T08:35:29.836Z,20.86
2018-09-12T08:37:57.534Z,20.71
2018-09-12T08:40:25.195Z,19.97
2018-09-12T08:42:52.922Z,20.59
2018-09-12T08:45:20.580Z,20.58
2018-09-12T08:47:48.305Z,19.66
2018-09-12T08:50:16.014Z,18.84
2018-09-12T08:52:43.678Z,19.20
2018-09-12T08:55:11.364Z,18.67
2018-09-12T08:57:39.064Z,19.07
2018-09-12T09:00:06.941Z,18.64
2018-09-12T09:02:34.604Z,18.34
2018-09-12T09:05:02.297Z,19.16
2018-09-12T09:07:29.967Z,19.11
2018-09-12T09:09:57.677Z,18.59
2018-09-12T09:12:25.389Z,17.98
2018-09-12T09:14:53.059Z,18.61
2018-09-12T09:17:20.802Z,19.05
2018-09-12T09:19:48.510Z,17.92
2018-09-12T09:22:16.204Z,18.36
2018-09-12T09:24:43.898Z,18.35
2018-09-12T09:27:11.617Z,17.89
2018-09-12T09:29:39.290Z,18.40
2018-09-12T09:32:07.275Z,18.47
2018-09-12T09:34:34.994Z,17.77
2018-09-12T09:37:02.686Z,18.51
2018-09-12T09:39:30.346Z,18.05
2018-09-12T09:41:58.051Z,18.62
2018-09-12T09:44:25.733Z,18.16
2018-09-12T09:46:53.402Z,18.44
2018-09-12T09:49:21.311Z,17.86
2018-09-12T09:51:48.958Z,17.39
2018-09-12T09:54:16.634Z,18.27
2018-09-12T09:56:44.346Z,18.11
2018-09-12T09:59:12.049Z,17.95
2018-09-12T10:01:45.297Z,17.27
2018-09-12T10:04:18.485Z,16.31
2018-09-12T10:06:51.828Z,16.79
2018-09-12T10:09:25.113Z,17.35
2018-09-12T10:11:52.881Z,16.62
2018-09-12T10:14:20.510Z,16.49
2018-09-12T10:16:48.204Z,16.47
2018-09-12T10:19:15.928Z,16.25
2018-09-12T10:21:43.665Z,15.52
2018-09-12T10:24:11.340Z,16.07
2018-09-12T10:26:39.038Z,15.98
2018-09-12T10:29:06.702Z,16.77
2018-09-12T10:31:34.345Z,16.19
2018-09-12T10:34:02.034Z,16.17
2018-09-12T10:36:30.390Z,16.83
2018-09-12T10:38:58.158Z,15.90
2018-09-12T10:41:25.969Z,15.73
2018-09-12T10:43:53.957Z,15.45
2018-09-12T10:46:21.844Z,16.10
2018-09-12T10:48:49.725Z,15.27
2018-09-12T10:51:17.791Z,15.01
2018-09-12T10:53:45.774Z,14.40
2018-09-12T10:56:13.679Z,14.67
2018-09-12T10:58:41.981Z,14.46
2018-09-12T11:01:09.902Z,14.63
2018-09-12T11:03:38.032Z,14.47
2018-09-12T11:06:06.094Z,13.68
2018-09-12T11:08:33.901Z,13.13
2018-09-12T11:11:02.181Z,12.97
2018-09-12T11:13:30.021Z,12.97
2018-09-12T11:15:57.917Z,13.04
2018-09-12T11:18:25.840Z,12.18
2018-09-12T11:20:53.662Z,12.79
2018-09-12T11:23:21.775Z,12.63
2018-09-12T11:25:49.639Z,12.96
2018-09-12T11:28:17.541Z,11.90
2018-09-12T11:30:45.464Z,11.36
2018-09-12T11:33:13.372Z,11.91
2018-09-12T11:35:41.202Z,12.48
2018-09-12T11:38:09.160Z,12.23
2018-09-12T11:40:37.059Z,11.25
2018-09-12T11:43:05.008Z,11.90
2018-09-12T11:45:33.084Z,12.16
2018-09-12T11:48:01.182Z,11.67
2018-09-12T11:50:29.024Z,11.75
2018-09-12T11:52:56.895Z,12.29
2018-09-12T11:55:24.818Z,11.40
2018-09-12T11:57:52.728Z,11.69
2018-09-12T12:00:20.608Z,11.39
2018-09-12T12:02:48.565Z,10.98
2018-09-12T12:05:16.636Z,10.67
2018-09-12T12:07:44.654Z,10.11
2018-09-12T12:10:12.617Z,9.27
2018-09-12T12:12:40.887Z,9.28
2018-09-12T12:15:08.883Z,9.60
2018-09-12T12:17:37.000Z,9.22
2018-09-12T12:20:05.000Z,9.24
2018-09-12T12:22:33.182Z,9.37
2018-09-12T12:25:01.110Z,9.52
2018-09-12T12:27:28.919Z,9.81
2018-09-12T12:29:56.803Z,9.19
2018-09-12T12:32:24.807Z,9.49
2018-09-12T12:34:52.726Z,9.31
2018-09-12T12:37:20.741Z,8.88
2018-09-12T12:39:48.620Z,8.71
2018-09-12T12:42:16.544Z,8.18
2018-09-12T12:44:44.314Z,8.35
2018-09-12T12:47:12.364Z,8.61
2018-09-12T12:49:40.346Z,8.74
2018-09-12T12:52:08.241Z,8.98
2018-09-12T12:54:36.235Z,9.00
2018-09-12T12:57:04.158Z,8.26
2018-09-12T12:59:32.357Z,8.66
2018-09-12T13:02:00.257Z,8.57
2018-09-12T13:04:28.217Z,8.09
2018-09-12T13:06:56.173Z,7.67
2018-09-12T13:09:24.298Z,8.00
2018-09-12T13:11:52.232Z,7.37
2018-09-12T13:14:20.474Z,7.17
2018-09-12T13:16:48.403Z,7.04
2018-09-12T13:19:16.256Z,7.38
2018-09-12T13:21:44.195Z,7.89
2018-09-12T13:24:12.068Z,8.17
2018-09-12T13:26:40.083Z,8.41
2018-09-12T13:29:08.018Z,8.00
2018-09-12T13:31:36.010Z,7.37
2018-09-12T13:34:04.236Z,7.50
2018-09-12T13:36:32.172Z,7.43
2018-09-12T13:39:00.146Z,7.44
2018-09-12T13:41:27.999Z,7.82
2018-09-12T13:43:55.885Z,7.76
2018-09-12T13:46:23.760Z,8.62
2018-09-12T13:48:51.615Z,8.72
2018-09-12T13:51:19.895Z,8.15
2018-09-12T13:53:47.913Z,8.15
2018-09-12T13:56:15.733Z,8.28
2018-09-12T13:58:43.814Z,7.63
2018-09-12T14:01:11.723Z,8.18
2018-09-12T14:03:39.553Z,7.82
2018-09-12T14:06:07.522Z,8.19
2018-09-12T14:08:35.806Z,7.84
2018-09-12T14:11:03.670Z,7.83
2018-09-12T14:13:31.560Z,8.25
2018-09-12T14:15:59.463Z,7.45
2018-09-12T14:18:27.286Z,8.03
2018-09-12T14:20:55.162Z,7.19
2018-09-12T14:23:23.058Z,7.54
2018-09-12T14:25:50.911Z,7.14
2018-09-12T14:28:18.865Z,7.84
2018-09-12T14:30:46.705Z,8.07
2018-09-12T14:33:14.493Z,8.52
2018-09-12T14:35:42.308Z,8.58
2018-09-12T14:38:10.186Z,8.90
2018-09-12T14:40:38.022Z,8.92
2018-09-12T14:43:06.225Z,8.77
2018-09-12T14:45:34.126Z,9.05
2018-09-12T14:48:02.047Z,9.07
2018-09-12T14:50:29.914Z,8.66
2018-09-12T14:52:57.845Z,9.23
2018-09-12T14:55:25.772Z,9.34
2018-09-12T14:57:53.655Z,9.09
2018-09-12T15:00:26.946Z,9.46
2018-09-12T15:02:56.577Z,10.12
2018-09-12T15:05:24.836Z,10.72
2018-09-12T15:07:52.924Z,10.33
2018-09-12T15:10:20.920Z,10.09
2018-09-12T15:12:48.857Z,9.49
2018-09-12T15:15:17.098Z,9.91
2018-09-12T15:17:45.750Z,10.17
2018-09-12T15:20:14.505Z,9.92
2018-09-12T15:22:42.940Z,9.46
2018-09-12T15:25:10.973Z,9.64
2018-09-12T15:27:38.843Z,9.80
2018-09-12T15:30:07.194Z,10.40
2018-09-12T15:32:35.375Z,10.52
2018-09-12T15:35:03.487Z,10.33
2018-09-12T15:37:31.474Z,11.15
2018-09-12T15:39:59.324Z,11.36
2018-09-12T15:42:27.549Z,11.53
2018-09-12T15:44:55.517Z,11.82
2018-09-12T15:47:23.608Z,11.94
2018-09-12T15:49:51.614Z,12.58
2018-09-12T15:52:19.506Z,12.95
2018-09-12T15:54:47.364Z,12.91
2018-09-12T15:57:15.233Z,13.63
2018-09-12T15:59:43.124Z,14.04
2018-09-12T16:02:11.377Z,13.76
2018-09-12T16:04:39.245Z,14.41
2018-09-12T16:07:07.068Z,15.14
2018-09-12T16:09:34.896Z,16.00
2018-09-12T16:12:02.941Z,15.74
2018-09-12T16:14:30.935Z,16.89
2018-09-12T16:16:58.858Z,17.85
2018-09-12T16:19:26.673Z,18.54
2018-09-12T16:21:54.692Z,18.41
2018-09-12T16:24:22.737Z,19.37
2018-09-12T16:26:50.597Z,19.22
2018-09-12T16:29:18.489Z,19.30
2018-09-12T16:31:46.417Z,20.23
2018-09-12T16:34:14.588Z,20.87
2018-09-12T16:36:42.489Z,21.07
2018-09-12T16:39:11.834Z,20.54
2018-09-12T16:41:39.651Z,21.00
2018-09-12T16:44:07.644Z,21.29
2018-09-12T16:46:35.620Z,21.39
2018-09-12T16:49:03.574Z,21.26
2018-09-12T16:51:31.461Z,21.89
2018-09-12T16:53:59.640Z,21.68
2018-09-12T16:56:27.804Z,22.87
2018-09-12T16:58:55.619Z,23.44
2018-09-12T17:01:23.454Z,23.63
2018-09-12T17:03:51.539Z,23.86
2018-09-12T17:06:19.443Z,23.62
2018-09-12T17:08:47.282Z,24.07
2018-09-12T17:11:15.543Z,24.00
2018-09-12T17:13:43.503Z,24.33
2018-09-12T17:16:11.537Z,24.49
2018-09-12T17:18:39.693Z,25.38
2018-09-12T17:21:07.686Z,26.04
2018-09-12T17:23:35.548Z,26.55
2018-09-12T17:26:03.504Z,27.35
2018-09-12T17:28:31.424Z,27.81
2018-09-12T17:30:59.253Z,27.86
2018-09-12T17:33:27.141Z,28.00
2018-09-12T17:35:55.284Z,28.40
2018-09-12T17:38:23.588Z,28.82
2018-09-12T17:40:51.520Z,29.15
2018-09-12T17:43:19.404Z,28.88
2018-09-12T17:45:47.588Z,29.15
2018-09-12T17:48:15.378Z,29.48
2018-09-12T17:50:43.279Z,29.77
2018-09-12T17:53:11.140Z,29.42
2018-09-12T17:55:39.186Z,29.90
2018-09-12T17:58:07.178Z,29.48
2018-09-12T18:00:35.440Z,30.52
2018-09-12T18:03:03.421Z,30.06
2018-09-12T18:05:31.346Z,30.77
2018-09-12T18:07:59.267Z,30.63
2018-09-12T18:10:27.160Z,30.86
2018-09-12T18:12:55.034Z,30.70
2018-09-12T18:15:23.083Z,31.54
2018-09-12T18:17:50.872Z,31.13
2018-09-12T18:20:18.958Z,30.96
2018-09-12T18:22:47.020Z,31.33
2018-09-12T18:25:14.868Z,31.48
2018-09-12T18:27:42.700Z,31.10
2018-09-12T18:30:11.657Z,31.26
2018-09-12T18:32:39.406Z,31.57
2018-09-12T18:35:07.718Z,31.61
2018-09-12T18:37:35.563Z,32.13
2018-09-12T18:40:03.765Z,32.44
2018-09-12T18:42:31.784Z,32.60
2018-09-12T18:44:59.693Z,32.19
2018-09-12T18:47:27.557Z,32.53
2018-09-12T18:49:55.491Z,32.65
2018-09-12T18:52:23.325Z,32.67
2018-09-12T18:54:51.280Z,32.46
2018-09-12T18:57:19.503Z,33.28
2018-09-12T18:59:47.328Z,33.19
2018-09-12T19:02:15.313Z,33.36
2018-09-12T19:04:43.209Z,33.29
2018-09-12T19:07:11.313Z,33.56
2018-09-12T19:09:39.115Z,33.45
2018-09-12T19:12:06.935Z,34.29
2018-09-12T19:14:34.804Z,34.73
2018-09-12T19:17:02.630Z,34.98
2018-09-12T19:19:31.543Z,34.79
2018-09-12T19:21:59.395Z,34.90
2018-09-12T19:24:27.373Z,35.58
2018-09-12T19:26:55.497Z,36.64
2018-09-12T19:29:23.628Z,36.43
2018-09-12T19:31:51.804Z,37.09
2018-09-12T19:34:20.093Z,37.06
2018-09-12T19:36:48.072Z,36.78
2018-09-12T19:39:16.156Z,36.92
2018-09-12T19:41:44.115Z,37.28
2018-09-12T19:44:11.989Z,38.10
2018-09-12T19:46:39.959Z,39.06
2018-09-12T19:49:08.090Z,39.11
2018-09-12T19:51:36.184Z,39.78
2018-09-12T19:54:04.080Z,40.38
2018-09-12T19:56:31.983Z,41.02
2018-09-12T19:59:00.137Z,40.69
2018-09-12T20:01:28.107Z,42.95
2018-09-12T20:03:56.145Z,43.90
2018-09-12T20:06:24.167Z,44.25
2018-09-12T20:08:52.340Z,44.79
2018-09-12T20:11:20.334Z,44.62
2018-09-12T20:13:48.599Z,45.47
2018-09-12T20:16:16.468Z,45.81
2018-09-12T20:18:44.488Z,46.07
2018-09-12T20:21:12.297Z,46.21
2018-09-12T20:23:40.354Z,46.41
2018-09-12T20:26:08.485Z,46.79
2018-09-12T20:28:40.055Z,46.75
2018-09-12T20:31:08.410Z,47.77
2018-09-12T20:33:36.641Z,47.35
2018-09-12T20:36:05.134Z,47.56
2018-09-12T20:38:33.173Z,48.06
2018-09-12T20:41:01.299Z,47.40
2018-09-12T20:43:29.194Z,48.01
2018-09-12T20:45:57.357Z,48.38
2018-09-12T20:48:25.218Z,48.53
2018-09-12T20:50:53.154Z,47.76
2018-09-12T20:53:21.111Z,48.90
2018-09-12T20:55:48.942Z,48.98
2018-09-12T20:58:16.824Z,49.26
2018-09-12T21:00:44.886Z,49.22
2018-09-12T21:03:12.963Z,48.95
2018-09-12T21:05:41.221Z,49.48
2018-09-12T21:08:09.214Z,49.27
2018-09-12T21:10:37.190Z,49.30
2018-09-12T21:13:05.162Z,49.67
2018-09-12T21:15:33.068Z,49.45
2018-09-12T21:18:00.932Z,49.25
2018-09-12T21:20:28.788Z,49.58
2018-09-12T21:22:56.710Z,49.37
2018-09-12T21:25:24.688Z,50.42
2018-09-12T21:27:52.616Z,49.93
2018-09-12T21:30:20.769Z,50.46
2018-09-12T21:32:48.864Z,50.21
2018-09-12T21:35:16.928Z,49.62
2018-09-12T21:37:44.818Z,50.36
2018-09-12T21:40:12.676Z,50.64
2018-09-12T21:42:40.535Z,51.00
2018-09-12T21:45:08.647Z,51.12
2018-09-12T21:47:36.669Z,50.98
2018-09-12T21:50:04.563Z,51.30
2018-09-12T21:52:32.570Z,51.69
2018-09-12T21:55:00.615Z,51.45
2018-09-12T21:57:28.489Z,51.21
2018-09-12T21:59:56.659Z,51.20
2018-09-12T22:02:24.552Z,50.85
2018-09-12T22:04:52.605Z,51.00
2018-09-12T22:07:20.530Z,51.08
2018-09-12T22:09:48.453Z,51.92
2018-09-12T22:12:16.523Z,51.82
2018-09-12T22:14:44.537Z,51.69
2018-09-12T22:17:12.484Z,51.94
2018-09-12T22:19:40.367Z,51.92
2018-09-12T22:22:08.473Z,52.47
2018-09-12T22:24:36.295Z,52.44
2018-09-12T22:27:04.471Z,52.19
2018-09-12T22:29:32.502Z,52.25
2018-09-12T22:32:00.697Z,52.30
2018-09-12T22:34:28.513Z,52.00
2018-09-12T22:36:57.241Z,52.18
2018-09-12T22:39:25.040Z,52.14
2018-09-12T22:41:52.977Z,52.12
2018-09-12T22:44:21.873Z,52.06
2018-09-12T22:46:51.262Z,52.12
2018-09-12T22:49:19.342Z,51.93
2018-09-12T22:51:47.038Z,51.75
2018-09-12T22:54:14.926Z,52.60
2018-09-12T22:56:43.025Z,52.14
2018-09-12T22:59:10.747Z,52.66
2018-09-12T23:01:38.441Z,52.11
2018-09-12T23:04:06.237Z,52.73
2018-09-12T23:06:33.940Z,52.33
2018-09-12T23:09:01.673Z,52.64
2018-09-12T23:11:29.322Z,53.08
2018-09-12T23:13:57.001Z,53.24
2018-09-12T23:16:24.650Z,52.96
2018-09-12T23:18:52.326Z,53.51
2018-09-12T23:21:20.096Z,53.47
2018-09-12T23:23:47.793Z,53.24
2018-09-12T23:26:15.493Z,53.77
2018-09-12T23:28:43.223Z,53.27
2018-09-12T23:31:10.843Z,53.22
2018-09-12T23:33:38.604Z,53.63
2018-09-12T23:36:06.308Z,53.73
2018-09-12T23:38:33.959Z,53.02
2018-09-12T23:41:01.600Z,53.22
2018-09-12T23:43:29.270Z,53.77
2018-09-12T23:45:56.910Z,54.17
2018-09-12T23:48:24.570Z,54.41
2018-09-12T23:50:52.277Z,54.22
2018-09-12T23:53:19.935Z,54.62
2018-09-12T23:55:47.579Z,54.56
2018-09-12T23:58:15.249Z,54.64
